createdAt,value
2019-03-03T00:00:20.615Z,48.83
2019-03-03T00:02:46.444Z,50.90
2019-03-03T00:05:12.377Z,49.80
2019-03-03T00:07:38.349Z,46.97
2019-03-03T00:10:09.391Z,48.20
2019-03-03T00:12:35.357Z,45.17
2019-03-03T00:15:02.389Z,49.20
2019-03-03T00:17:28.232Z,49.83
2019-03-03T00:19:54.078Z,48.10
2019-03-03T00:22:20.018Z,48.93
2019-03-03T00:24:45.878Z,51.50
2019-03-03T00:27:11.757Z,48.30
2019-03-03T00:29:37.625Z,46.47
2019-03-03T00:32:03.564Z,44.50
2019-03-03T00:34:29.440Z,41.87
2019-03-03T00:36:59.993Z,43.77
2019-03-03T00:39:34.051Z,47.50
2019-03-03T00:42:18.436Z,45.80
2019-03-03T00:44:52.027Z,48.03
2019-03-03T00:47:22.840Z,46.50
2019-03-03T00:49:50.821Z,46.03
2019-03-03T00:52:21.669Z,43.00
2019-03-03T00:55:06.367Z,45.27
2019-03-03T00:57:34.886Z,48.67
2019-03-03T01:00:02.732Z,47.20
2019-03-03T01:02:36.505Z,44.73
2019-03-03T01:05:08.702Z,44.73
2019-03-03T01:07:54.781Z,43.67
2019-03-03T01:10:22.742Z,38.30
2019-03-03T01:12:56.543Z,45.67
2019-03-03T01:15:39.444Z,40.97
2019-03-03T01:18:10.325Z,43.53
2019-03-03T01:20:41.271Z,41.87
2019-03-03T01:23:20.986Z,50.33
2019-03-03T01:25:47.093Z,40.80
2019-03-03T01:28:13.188Z,43.07
2019-03-03T01:30:39.044Z,46.53
2019-03-03T01:33:05.132Z,42.10
2019-03-03T01:35:31.061Z,42.70
2019-03-03T01:37:57.034Z,40.20
2019-03-03T01:40:23.150Z,41.50
2019-03-03T01:42:48.993Z,44.27
2019-03-03T01:45:15.046Z,46.77
2019-03-03T01:47:41.079Z,46.13
2019-03-03T01:50:09.417Z,42.00
2019-03-03T01:52:35.332Z,46.10
2019-03-03T01:55:01.217Z,40.50
2019-03-03T01:57:27.255Z,42.00
2019-03-03T01:59:53.165Z,45.63
2019-03-03T02:02:19.324Z,45.90
2019-03-03T02:04:45.245Z,43.97
2019-03-03T02:07:11.263Z,42.87
2019-03-03T02:09:37.324Z,43.57
2019-03-03T02:12:03.367Z,39.97
2019-03-03T02:14:29.624Z,43.20
2019-03-03T02:16:55.569Z,39.07
2019-03-03T02:19:21.410Z,42.77
2019-03-03T02:21:47.321Z,38.53
2019-03-03T02:24:13.817Z,45.20
2019-03-03T02:26:39.661Z,42.07
2019-03-03T02:29:05.729Z,41.57
2019-03-03T02:31:31.685Z,41.90
2019-03-03T02:33:57.523Z,41.57
2019-03-03T02:36:23.613Z,40.23
2019-03-03T02:38:49.449Z,44.80
2019-03-03T02:41:15.621Z,42.53
2019-03-03T02:43:41.590Z,40.83
2019-03-03T02:46:07.556Z,43.80
2019-03-03T02:48:33.563Z,40.73
2019-03-03T02:50:59.531Z,39.90
2019-03-03T02:53:25.481Z,40.37
2019-03-03T02:55:51.383Z,44.20
2019-03-03T02:58:17.234Z,40.43
2019-03-03T03:00:47.180Z,41.13
2019-03-03T03:03:14.562Z,40.00
2019-03-03T03:05:48.030Z,41.50
2019-03-03T03:08:15.925Z,40.10
2019-03-03T03:10:48.496Z,43.03
2019-03-03T03:13:16.237Z,40.73
2019-03-03T03:15:44.231Z,46.20
2019-03-03T03:18:30.252Z,41.93
2019-03-03T03:21:00.927Z,40.30
2019-03-03T03:23:31.406Z,43.03
2019-03-03T03:26:02.225Z,41.07
2019-03-03T03:28:32.954Z,41.23
2019-03-03T03:31:03.685Z,43.77
2019-03-03T03:33:34.178Z,42.23
2019-03-03T03:36:12.735Z,42.13
2019-03-03T03:38:49.523Z,36.47
2019-03-03T03:41:26.142Z,44.47
2019-03-03T03:43:59.769Z,39.63
2019-03-03T03:46:27.739Z,42.03
2019-03-03T03:48:55.607Z,40.37
2019-03-03T03:51:29.663Z,40.80
2019-03-03T03:54:14.549Z,38.17
2019-03-03T03:56:48.080Z,38.57
2019-03-03T03:59:15.829Z,39.93
2019-03-03T04:01:49.638Z,46.83
2019-03-03T04:04:17.494Z,40.00
2019-03-03T04:06:45.472Z,38.50
2019-03-03T04:09:23.001Z,39.47
2019-03-03T04:12:05.857Z,38.27
2019-03-03T04:14:40.803Z,38.00
2019-03-03T04:17:11.251Z,40.97
2019-03-03T04:19:41.764Z,46.37
2019-03-03T04:22:27.773Z,41.43
2019-03-03T04:25:07.501Z,38.33
2019-03-03T04:27:38.493Z,37.53
2019-03-03T04:30:09.602Z,38.50
2019-03-03T04:32:54.245Z,40.03
2019-03-03T04:35:40.118Z,39.97
2019-03-03T04:38:07.883Z,40.40
2019-03-03T04:40:47.970Z,44.60
2019-03-03T04:43:31.094Z,38.87
2019-03-03T04:45:58.865Z,42.20
2019-03-03T04:48:29.912Z,40.73
2019-03-03T04:51:14.198Z,43.87
2019-03-03T04:53:42.136Z,38.77
2019-03-03T04:56:21.907Z,39.53
2019-03-03T04:59:06.660Z,41.93
2019-03-03T05:01:46.409Z,43.53
2019-03-03T05:04:30.732Z,39.57
2019-03-03T05:07:04.313Z,38.70
2019-03-03T05:09:32.076Z,39.60
2019-03-03T05:12:20.137Z,38.73
2019-03-03T05:14:46.199Z,39.43
2019-03-03T05:17:19.756Z,37.43
2019-03-03T05:19:47.555Z,36.30
2019-03-03T05:22:13.500Z,38.33
2019-03-03T05:24:39.345Z,38.60
2019-03-03T05:27:05.236Z,36.97
2019-03-03T05:29:31.188Z,39.03
2019-03-03T05:31:57.126Z,40.30
2019-03-03T05:34:23.094Z,40.50
2019-03-03T05:36:49.082Z,38.27
2019-03-03T05:39:15.096Z,37.47
2019-03-03T05:41:40.944Z,41.43
2019-03-03T05:44:06.801Z,40.80
2019-03-03T05:46:32.703Z,39.70
2019-03-03T05:48:58.677Z,38.97
2019-03-03T05:51:24.633Z,40.33
2019-03-03T05:53:50.548Z,42.50
2019-03-03T05:56:16.423Z,41.80
2019-03-03T05:58:42.224Z,40.00
2019-03-03T06:01:08.068Z,39.40
2019-03-03T06:03:34.045Z,36.90
2019-03-03T06:05:59.924Z,38.37
2019-03-03T06:08:25.790Z,35.23
2019-03-03T06:10:51.739Z,37.00
2019-03-03T06:13:17.644Z,41.47
2019-03-03T06:15:43.496Z,40.30
2019-03-03T06:18:09.435Z,41.80
2019-03-03T06:20:35.439Z,42.50
2019-03-03T06:23:01.293Z,43.37
2019-03-03T06:25:27.170Z,41.67
2019-03-03T13:46:18.594Z,35.63
2019-03-03T13:48:44.543Z,34.25
2019-03-03T13:51:10.749Z,37.38
2019-03-03T13:53:36.792Z,39.08
2019-03-03T13:56:02.954Z,36.30
2019-03-03T13:58:29.038Z,38.70
2019-03-03T14:00:55.095Z,36.45
2019-03-03T14:03:21.125Z,41.40
2019-03-03T14:05:47.151Z,41.08
2019-03-03T14:08:13.190Z,37.98
2019-03-03T14:10:39.349Z,41.18
2019-03-03T14:13:05.299Z,35.73
2019-03-03T14:15:31.388Z,40.10
2019-03-03T14:17:58.049Z,36.58
2019-03-03T14:20:24.230Z,39.73
2019-03-03T14:22:52.227Z,41.37
2019-03-03T14:25:18.182Z,39.33
2019-03-03T14:27:44.233Z,38.48
2019-03-03T14:30:18.684Z,39.88
2019-03-03T14:32:44.994Z,40.65
2019-03-03T14:35:12.775Z,42.78
2019-03-03T14:37:38.816Z,39.30
2019-03-03T14:40:08.197Z,40.85
2019-03-03T14:42:34.237Z,42.70
2019-03-03T14:45:00.240Z,45.52
2019-03-03T14:47:26.198Z,46.20
2019-03-03T14:49:52.172Z,45.78
2019-03-03T14:52:18.183Z,47.58
2019-03-03T14:54:44.105Z,46.83
2019-03-03T14:57:10.022Z,47.58
2019-03-03T14:59:35.958Z,43.50
2019-03-03T15:02:02.044Z,46.98
2019-03-03T15:04:28.002Z,43.90
2019-03-03T15:06:53.984Z,45.15
2019-03-03T15:09:20.676Z,46.18
2019-03-03T15:11:46.628Z,44.90
2019-03-03T15:14:12.601Z,46.35
2019-03-03T15:16:38.578Z,44.10
2019-03-03T15:19:04.624Z,42.55
2019-03-03T15:21:30.599Z,44.67
2019-03-03T15:23:56.439Z,44.80
2019-03-03T15:26:22.409Z,49.20
2019-03-03T15:28:48.422Z,47.43
2019-03-03T15:31:14.489Z,49.37
2019-03-03T15:33:40.469Z,49.80
2019-03-03T15:36:06.550Z,50.93
2019-03-03T15:38:32.688Z,50.10
2019-03-03T15:40:58.730Z,48.23
2019-03-03T15:43:24.705Z,52.27
2019-03-03T15:45:50.574Z,48.33
2019-03-03T15:48:16.544Z,53.90
2019-03-03T15:50:42.609Z,50.70
2019-03-03T15:53:08.546Z,50.03
2019-03-03T15:55:34.506Z,49.57
2019-03-03T15:58:00.548Z,52.43
2019-03-03T16:00:29.000Z,51.77
2019-03-03T16:02:54.988Z,51.83
2019-03-03T16:05:21.063Z,51.90
2019-03-03T16:07:47.319Z,52.57
2019-03-03T16:10:17.482Z,49.90
2019-03-03T16:12:43.643Z,52.80
2019-03-03T16:15:11.722Z,48.40
2019-03-03T16:17:37.771Z,51.10
2019-03-03T16:20:09.666Z,53.37
2019-03-03T16:22:35.824Z,57.97
2019-03-03T16:25:02.203Z,52.17
2019-03-03T16:27:28.051Z,56.60
2019-03-03T16:29:54.004Z,51.47
2019-03-03T16:32:19.849Z,56.30
2019-03-03T16:34:45.690Z,50.80
2019-03-03T16:37:11.577Z,55.07
2019-03-03T16:39:37.497Z,59.67
2019-03-03T16:42:03.424Z,51.83
2019-03-03T16:44:29.393Z,54.30
2019-03-03T16:46:55.309Z,51.33
2019-03-03T16:49:21.175Z,55.27
2019-03-03T16:51:47.139Z,52.70
2019-03-03T16:54:13.126Z,54.63
2019-03-03T16:56:39.156Z,54.13
2019-03-03T16:59:05.018Z,58.97
2019-03-03T17:01:31.091Z,64.70
2019-03-03T17:03:57.026Z,59.27
2019-03-03T17:06:22.945Z,58.43
2019-03-03T17:08:48.952Z,60.07
2019-03-03T17:11:14.757Z,63.93
2019-03-03T17:13:40.711Z,61.07
2019-03-03T17:16:06.537Z,60.90
2019-03-03T17:18:32.497Z,56.20
2019-03-03T17:20:58.377Z,68.47
2019-03-03T17:23:24.315Z,64.27
2019-03-03T17:25:50.418Z,65.83
2019-03-03T17:28:16.355Z,67.03
2019-03-03T17:30:45.957Z,64.93
2019-03-03T17:33:11.785Z,64.33
2019-03-03T17:35:37.640Z,70.07
2019-03-03T17:38:03.635Z,65.10
2019-03-03T17:40:29.505Z,67.77
2019-03-03T17:42:55.464Z,70.63
2019-03-03T17:45:22.481Z,69.67
2019-03-03T17:47:49.032Z,79.83
2019-03-03T17:50:18.666Z,69.80
2019-03-03T17:52:44.957Z,74.17
2019-03-03T17:55:11.945Z,71.67
2019-03-03T17:57:37.964Z,73.20
2019-03-03T18:00:08.931Z,75.73
2019-03-03T18:02:34.873Z,72.40
2019-03-03T18:05:00.887Z,111.10
2019-03-03T18:07:26.765Z,82.23
2019-03-03T18:09:52.617Z,75.47
2019-03-03T18:12:18.465Z,71.57
2019-03-03T18:14:44.363Z,66.37
2019-03-03T18:17:10.206Z,72.17
2019-03-03T18:19:36.041Z,62.63
2019-03-03T18:22:01.900Z,66.00
2019-03-03T18:24:27.723Z,67.43
2019-03-03T18:26:53.569Z,62.50
2019-03-03T18:29:19.564Z,62.33
2019-03-03T18:31:45.537Z,62.47
2019-03-03T18:34:11.606Z,62.77
2019-03-03T18:36:38.173Z,63.97
2019-03-03T18:39:05.407Z,63.17
2019-03-03T18:41:31.480Z,62.23
2019-03-03T18:43:57.436Z,60.60
2019-03-03T18:46:23.387Z,67.17
2019-03-03T18:48:49.491Z,61.50
2019-03-03T18:51:15.572Z,68.77
2019-03-03T18:53:41.446Z,87.20
2019-03-03T18:56:07.566Z,67.10
2019-03-03T18:58:33.520Z,61.97
2019-03-03T19:00:59.457Z,64.07
2019-03-03T19:03:25.394Z,65.57
2019-03-03T19:05:55.753Z,61.30
2019-03-03T19:08:19.063Z,67.13
2019-03-03T19:10:44.907Z,70.50
2019-03-03T19:13:10.839Z,74.60
2019-03-03T19:15:36.840Z,67.90
2019-03-03T19:18:03.393Z,64.57
2019-03-03T19:20:30.463Z,63.80
2019-03-03T19:22:56.432Z,71.30
2019-03-03T19:25:22.477Z,69.77
2019-03-03T19:27:48.600Z,72.80
2019-03-03T19:30:21.370Z,71.17
2019-03-03T19:32:54.606Z,71.23
2019-03-03T19:35:20.677Z,75.00
2019-03-03T19:37:46.757Z,80.10
2019-03-03T19:40:12.820Z,79.70
2019-03-03T19:42:38.984Z,88.10
2019-03-03T19:45:20.259Z,74.70
2019-03-03T19:47:46.343Z,73.33
2019-03-03T19:50:13.289Z,77.53
2019-03-03T19:52:39.294Z,76.90
2019-03-03T19:55:08.261Z,71.50
2019-03-03T19:57:34.242Z,74.20
2019-03-03T20:00:00.236Z,68.37
2019-03-03T20:02:26.347Z,78.03
2019-03-03T20:04:52.536Z,75.37
2019-03-03T20:07:18.591Z,79.30
2019-03-03T20:09:45.240Z,76.13
2019-03-03T20:12:11.298Z,79.00
2019-03-03T20:14:37.263Z,81.17
2019-03-03T20:17:03.508Z,79.17
2019-03-03T20:19:29.428Z,75.83
2019-03-03T20:21:55.268Z,77.63
2019-03-03T20:24:21.338Z,72.20
2019-03-03T20:26:47.318Z,81.07
2019-03-03T20:29:13.280Z,78.37
2019-03-03T20:31:39.218Z,74.37
2019-03-03T20:34:05.094Z,72.00
2019-03-03T20:36:31.076Z,79.13
2019-03-03T20:38:57.040Z,75.20
2019-03-03T20:41:22.976Z,89.77
2019-03-03T20:43:48.839Z,78.47
2019-03-03T20:46:14.811Z,85.20
2019-03-03T20:48:40.886Z,81.67
2019-03-03T20:51:07.137Z,83.60
2019-03-03T20:53:33.489Z,81.50
2019-03-03T20:55:59.735Z,83.27
2019-03-03T20:58:26.418Z,82.43
2019-03-03T21:00:53.413Z,78.70
2019-03-03T21:03:21.751Z,77.17
2019-03-03T21:05:48.318Z,88.70
2019-03-03T21:08:15.034Z,80.37
2019-03-03T21:10:41.747Z,74.90
2019-03-03T21:13:08.397Z,79.83
2019-03-03T21:15:35.181Z,79.17
2019-03-03T21:18:01.880Z,79.90
2019-03-03T21:20:28.684Z,77.90
2019-03-03T21:22:55.341Z,78.63
2019-03-03T21:25:21.708Z,77.57
2019-03-03T21:27:47.932Z,72.63
2019-03-03T21:30:18.226Z,79.83
2019-03-03T21:32:44.155Z,73.57
2019-03-03T21:35:11.131Z,78.83
2019-03-03T21:37:37.053Z,83.50
2019-03-03T21:40:06.414Z,75.67
2019-03-03T21:42:32.368Z,76.77
2019-03-03T21:44:58.287Z,77.10
2019-03-03T21:47:24.118Z,80.17
2019-03-03T21:49:50.032Z,72.40
2019-03-03T21:52:15.879Z,73.00
2019-03-03T21:54:42.682Z,77.70
2019-03-03T21:57:09.772Z,69.50
2019-03-03T21:59:35.625Z,74.63
2019-03-03T22:02:01.467Z,68.77
2019-03-03T22:04:27.453Z,69.80
2019-03-03T22:06:53.300Z,67.13
2019-03-03T22:09:21.518Z,72.87
2019-03-03T22:11:47.489Z,68.37
2019-03-03T22:14:13.318Z,66.93
2019-03-03T22:16:39.203Z,66.23
2019-03-03T22:19:05.056Z,69.60
2019-03-03T22:21:31.006Z,70.83
2019-03-03T22:23:57.002Z,71.73
2019-03-03T22:26:22.951Z,68.63
2019-03-03T22:28:48.886Z,68.33
2019-03-03T22:31:14.941Z,68.37
2019-03-03T22:33:40.807Z,69.63
2019-03-03T22:36:10.813Z,65.97
2019-03-03T22:38:36.658Z,66.37
2019-03-03T22:41:02.711Z,65.70
2019-03-03T22:43:28.645Z,69.60
2019-03-03T22:45:54.691Z,65.73
2019-03-03T22:48:20.595Z,69.70
2019-03-03T22:50:46.466Z,68.80
2019-03-03T22:53:12.715Z,68.77
2019-03-03T22:55:40.404Z,68.83
2019-03-03T22:58:06.648Z,66.57
2019-03-03T23:00:50.026Z,63.67
2019-03-03T23:03:25.471Z,63.10
2019-03-03T23:05:58.189Z,63.27
2019-03-03T23:08:33.901Z,64.50
2019-03-03T23:11:30.759Z,60.00
2019-03-03T23:14:12.740Z,61.47
2019-03-03T23:16:42.481Z,68.47
2019-03-03T23:19:27.243Z,66.63
2019-03-03T23:22:14.912Z,60.47
2019-03-03T23:24:59.426Z,65.50
2019-03-03T23:27:25.395Z,59.10
2019-03-03T23:29:51.386Z,58.70
2019-03-03T23:32:17.555Z,57.23
2019-03-03T23:34:43.482Z,61.30
2019-03-03T23:37:09.389Z,61.50
2019-03-03T23:39:35.317Z,54.90
2019-03-03T23:42:01.418Z,69.30
2019-03-03T23:44:27.422Z,57.73
2019-03-03T23:46:53.241Z,61.03
2019-03-03T23:49:19.079Z,58.30
2019-03-03T23:51:45.143Z,62.87
2019-03-03T23:54:11.144Z,56.33
2019-03-03T23:56:36.997Z,55.10
2019-03-03T23:59:02.958Z,62.50
